createdAt,value
2023-01-22T00:01:20.547Z,16.00
2023-01-22T00:03:49.773Z,19.90
2023-01-22T00:06:18.128Z,13.10
2023-01-22T00:08:48.339Z,17.30
2023-01-22T00:11:18.324Z,13.10
2023-01-22T00:13:46.935Z,16.30
2023-01-22T00:16:17.064Z,17.10
2023-01-22T00:18:45.123Z,13.80
2023-01-22T00:21:13.717Z,13.50
2023-01-22T00:23:41.791Z,19.40
2023-01-22T00:26:13.051Z,16.20
2023-01-22T00:28:45.290Z,14.90
2023-01-22T00:31:15.358Z,15.30
2023-01-22T00:33:44.814Z,19.20
2023-01-22T00:36:18.736Z,21.90
2023-01-22T00:38:50.767Z,22.80
2023-01-22T00:41:20.131Z,22.10
2023-01-22T00:43:51.108Z,21.20
2023-01-22T00:46:21.115Z,23.80
2023-01-22T00:48:52.265Z,21.30
2023-01-22T00:51:21.017Z,15.30
2023-01-22T00:53:49.518Z,19.00
2023-01-22T00:56:18.180Z,16.70
2023-01-22T00:58:46.485Z,19.30
2023-01-22T01:01:15.750Z,18.10
2023-01-22T01:03:44.889Z,17.80
2023-01-22T01:06:20.542Z,19.90
2023-01-22T01:08:50.224Z,23.60
2023-01-22T01:11:23.778Z,26.00
2023-01-22T01:13:53.246Z,22.80
2023-01-22T01:16:27.065Z,21.20
2023-01-22T01:19:00.154Z,19.20
2023-01-22T01:21:29.390Z,36.40
2023-01-22T01:23:58.845Z,43.30
2023-01-22T01:26:27.643Z,20.50
2023-01-22T01:28:57.394Z,20.00
2023-01-22T01:31:28.757Z,21.80
2023-01-22T01:33:58.635Z,23.70
2023-01-22T01:36:47.155Z,22.60
2023-01-22T01:39:15.400Z,20.40
2023-01-22T01:41:44.051Z,20.80
2023-01-22T01:44:12.572Z,23.60
2023-01-22T01:46:53.822Z,21.00
2023-01-22T01:49:37.373Z,25.30
2023-01-22T01:52:11.015Z,24.00
2023-01-22T01:54:43.189Z,22.80
2023-01-22T01:57:19.679Z,21.70
2023-01-22T01:59:50.096Z,20.50
2023-01-22T02:02:20.822Z,23.20
2023-01-22T02:04:51.190Z,21.20
2023-01-22T02:07:21.332Z,19.40
2023-01-22T02:09:49.885Z,19.20
2023-01-22T02:12:18.314Z,22.10
2023-01-22T02:14:50.034Z,31.20
2023-01-22T02:17:22.999Z,27.10
2023-01-22T02:19:52.256Z,26.50
2023-01-22T02:22:23.361Z,25.90
2023-01-22T02:24:52.233Z,26.00
2023-01-22T02:27:20.827Z,30.40
2023-01-22T02:29:51.486Z,27.60
2023-01-22T02:32:20.088Z,26.60
2023-01-22T02:34:48.742Z,22.30
2023-01-22T02:37:17.286Z,23.90
2023-01-22T02:39:46.091Z,26.80
2023-01-22T02:42:14.837Z,25.90
2023-01-22T02:44:43.714Z,21.70
2023-01-22T02:47:13.804Z,24.20
2023-01-22T02:49:42.015Z,19.30
2023-01-22T02:52:10.354Z,19.80
2023-01-22T02:54:38.975Z,15.70
2023-01-22T02:57:07.325Z,15.00
2023-01-22T02:59:35.768Z,17.50
2023-01-22T03:02:04.320Z,17.20
2023-01-22T03:04:32.843Z,21.20
2023-01-22T03:07:01.079Z,25.30
2023-01-22T03:09:30.029Z,25.70
2023-01-22T03:11:58.722Z,25.00
2023-01-22T03:14:51.240Z,24.50
2023-01-22T03:17:38.226Z,21.80
2023-01-22T03:20:26.595Z,25.30
2023-01-22T03:22:54.717Z,24.90
2023-01-22T03:25:23.222Z,19.90
2023-01-22T03:28:12.298Z,21.00
2023-01-22T03:30:40.785Z,21.20
2023-01-22T03:33:10.046Z,21.40
2023-01-22T03:35:39.447Z,22.60
2023-01-22T03:38:17.652Z,15.40
2023-01-22T03:40:46.191Z,18.70
2023-01-22T03:43:15.320Z,14.10
2023-01-22T03:45:43.692Z,12.90
2023-01-22T03:48:14.189Z,16.70
2023-01-22T03:50:42.802Z,12.00
2023-01-22T03:53:10.937Z,13.00
2023-01-22T03:55:39.240Z,14.50
2023-01-22T03:58:08.040Z,15.20
2023-01-22T04:00:36.814Z,19.30
2023-01-22T04:03:06.013Z,18.60
2023-01-22T04:05:38.803Z,12.60
2023-01-22T04:08:08.087Z,22.10
2023-01-22T04:10:37.957Z,22.40
2023-01-22T04:13:06.273Z,17.50
2023-01-22T04:15:35.366Z,20.70
2023-01-22T04:18:09.394Z,16.50
2023-01-22T04:20:49.146Z,11.10
2023-01-22T04:23:40.936Z,12.10
2023-01-22T04:26:09.913Z,15.30
2023-01-22T04:28:38.638Z,15.60
2023-01-22T04:31:08.920Z,11.30
2023-01-22T04:33:44.660Z,15.20
2023-01-22T04:36:18.627Z,11.30
2023-01-22T04:38:46.893Z,12.10
2023-01-22T04:41:15.273Z,12.40
2023-01-22T04:43:45.115Z,30.60
2023-01-22T04:46:14.327Z,45.40
2023-01-22T04:48:43.628Z,42.50
2023-01-22T04:51:14.249Z,17.50
2023-01-22T04:53:42.455Z,10.00
2023-01-22T04:56:10.861Z,7.70
2023-01-22T04:58:40.265Z,10.80
2023-01-22T05:01:08.630Z,10.30
2023-01-22T05:03:36.865Z,9.40
2023-01-22T05:06:07.643Z,9.20
2023-01-22T05:08:37.538Z,10.00
2023-01-22T05:11:06.023Z,13.70
2023-01-22T05:13:46.667Z,10.30
2023-01-22T05:16:14.996Z,13.10
2023-01-22T05:18:43.025Z,11.00
2023-01-22T05:21:11.634Z,11.70
2023-01-22T05:23:39.793Z,13.30
2023-01-22T05:26:09.078Z,12.50
2023-01-22T05:28:44.155Z,13.00
2023-01-22T05:31:20.885Z,12.90
2023-01-22T05:33:55.211Z,14.10
2023-01-22T05:36:23.787Z,9.10
2023-01-22T05:38:55.962Z,11.10
2023-01-22T05:41:25.924Z,10.30
2023-01-22T05:43:55.350Z,11.30
2023-01-22T05:46:27.937Z,10.40
2023-01-22T05:49:20.565Z,12.60
2023-01-22T05:51:49.834Z,10.10
2023-01-22T05:54:19.204Z,13.70
2023-01-22T05:56:48.817Z,15.80
2023-01-22T05:59:17.090Z,21.80
2023-01-22T06:01:50.078Z,29.90
2023-01-22T06:04:18.484Z,25.10
2023-01-22T06:06:46.789Z,17.30
2023-01-22T06:09:15.220Z,14.90
2023-01-22T06:11:44.022Z,15.60
2023-01-22T06:14:12.858Z,23.70
2023-01-22T06:16:41.318Z,25.30
2023-01-22T06:19:44.542Z,30.70
2023-01-22T06:22:13.536Z,64.00
2023-01-22T06:24:58.103Z,69.90
2023-01-22T06:27:29.390Z,31.70
2023-01-22T06:30:01.189Z,27.50
2023-01-22T06:32:30.635Z,22.10
2023-01-22T06:34:59.886Z,23.30
2023-01-22T06:37:28.645Z,21.50
2023-01-22T06:39:58.774Z,16.60
2023-01-22T06:42:37.191Z,17.60
2023-01-22T06:45:06.223Z,17.00
2023-01-22T06:47:38.114Z,8.50
2023-01-22T06:50:06.493Z,21.20
2023-01-22T06:52:36.151Z,41.70
2023-01-22T06:55:05.151Z,33.50
2023-01-22T06:57:33.734Z,36.60
2023-01-22T07:00:02.223Z,29.30
2023-01-22T07:02:31.398Z,45.20
2023-01-22T07:04:59.974Z,43.20
2023-01-22T07:07:28.524Z,56.00
2023-01-22T07:09:56.741Z,44.50
2023-01-22T07:12:24.949Z,18.10
2023-01-22T07:14:53.254Z,9.90
2023-01-22T07:17:21.394Z,10.90
2023-01-22T07:19:49.564Z,6.20
2023-01-22T07:22:18.152Z,7.70
2023-01-22T07:24:48.702Z,5.50
2023-01-22T07:27:16.982Z,5.00
2023-01-22T07:29:45.387Z,6.90
2023-01-22T07:32:13.705Z,5.70
2023-01-22T07:34:41.752Z,11.30
2023-01-22T07:37:10.644Z,7.60
2023-01-22T07:39:38.945Z,7.60
2023-01-22T07:42:07.396Z,7.90
2023-01-22T07:44:40.552Z,6.50
2023-01-22T07:47:09.468Z,9.30
2023-01-22T07:49:37.596Z,7.60
2023-01-22T07:52:05.858Z,8.10
2023-01-22T07:54:36.740Z,7.90
2023-01-22T07:59:33.098Z,12.40
2023-01-22T08:02:03.482Z,9.20
2023-01-22T08:07:00.369Z,7.40
2023-01-22T08:09:28.626Z,8.80
2023-01-22T08:11:57.378Z,17.50
2023-01-22T08:14:25.556Z,9.60
2023-01-22T08:16:53.539Z,10.50
2023-01-22T08:19:22.020Z,9.80
2023-01-22T08:21:50.235Z,13.40
2023-01-22T08:24:18.634Z,10.30
2023-01-22T08:26:47.014Z,17.60
2023-01-22T08:29:15.370Z,12.20
2023-01-22T08:31:44.286Z,11.10
2023-01-22T08:34:12.707Z,13.70
2023-01-22T08:36:40.951Z,17.40
2023-01-22T08:39:11.077Z,13.80
2023-01-22T08:41:41.398Z,14.80
2023-01-22T08:44:13.512Z,19.50
2023-01-22T08:46:41.561Z,18.80
2023-01-22T08:49:10.123Z,20.70
2023-01-22T08:51:38.069Z,12.20
2023-01-22T08:54:06.543Z,11.60
2023-01-22T08:56:34.727Z,13.40
2023-01-22T08:59:06.590Z,13.50
2023-01-22T09:01:35.518Z,10.10
2023-01-22T09:04:07.955Z,10.60
2023-01-22T09:06:37.678Z,10.70
2023-01-22T09:09:07.123Z,11.60
2023-01-22T09:11:35.327Z,7.00
2023-01-22T09:14:04.094Z,6.40
2023-01-22T09:16:33.769Z,6.80
2023-01-22T09:19:01.938Z,5.30
2023-01-22T09:21:30.415Z,7.40
2023-01-22T09:23:58.672Z,9.50
2023-01-22T09:26:27.709Z,8.60
2023-01-22T09:28:55.630Z,11.50
2023-01-22T09:31:23.897Z,7.20
2023-01-22T09:33:52.152Z,11.00
2023-01-22T09:36:20.078Z,11.90
2023-01-22T09:38:48.312Z,10.70
2023-01-22T09:41:28.235Z,18.00
2023-01-22T09:44:20.008Z,17.10
2023-01-22T09:46:56.915Z,17.30
2023-01-22T09:49:31.610Z,16.40
2023-01-22T09:52:04.965Z,15.10
2023-01-22T09:54:34.074Z,9.80
2023-01-22T09:57:05.611Z,14.20
2023-01-22T09:59:45.762Z,13.00
2023-01-22T10:02:41.495Z,14.20
2023-01-22T10:05:19.693Z,8.40
2023-01-22T10:07:54.353Z,10.10
2023-01-22T10:10:26.114Z,13.60
2023-01-22T10:13:06.374Z,11.70
2023-01-22T10:15:34.791Z,6.30
2023-01-22T10:18:13.114Z,16.00
2023-01-22T10:20:41.372Z,14.70
2023-01-22T10:23:19.570Z,8.90
2023-01-22T10:25:48.493Z,6.70
2023-01-22T10:28:25.871Z,9.40
2023-01-22T10:30:59.186Z,5.10
2023-01-22T10:33:29.974Z,5.60
2023-01-22T10:35:58.249Z,6.70
2023-01-22T10:38:30.827Z,8.20
2023-01-22T10:41:02.448Z,6.20
2023-01-22T10:43:37.099Z,8.80
2023-01-22T10:46:24.039Z,7.40
2023-01-22T10:49:00.627Z,11.40
2023-01-22T10:51:40.409Z,6.50
2023-01-22T10:54:34.040Z,7.30
2023-01-22T10:57:22.573Z,8.90
2023-01-22T11:00:26.141Z,7.40
2023-01-22T11:02:54.718Z,10.00
2023-01-22T11:05:30.022Z,13.60
2023-01-22T11:08:03.919Z,9.50
2023-01-22T11:11:13.647Z,7.80
2023-01-22T11:14:05.522Z,8.80
2023-01-22T11:16:37.728Z,7.80
2023-01-22T11:19:23.829Z,7.10
2023-01-22T11:21:58.978Z,10.00
2023-01-22T11:24:39.002Z,8.70
2023-01-22T11:27:10.046Z,6.60
2023-01-22T11:30:01.451Z,5.00
2023-01-22T11:32:57.678Z,5.20
2023-01-22T11:36:13.103Z,5.80
2023-01-22T11:38:52.867Z,6.60
2023-01-22T11:41:27.525Z,4.40
2023-01-22T11:44:04.778Z,4.80
2023-01-22T11:46:54.369Z,5.20
2023-01-22T11:49:43.961Z,4.80
2023-01-22T11:52:38.222Z,6.70
2023-01-22T11:55:46.740Z,5.20
2023-01-22T11:58:51.425Z,7.20
2023-01-22T12:01:32.487Z,6.40
2023-01-22T12:04:39.890Z,11.50
2023-01-22T12:07:45.474Z,5.30
2023-01-22T12:10:37.958Z,5.20
2023-01-22T12:13:18.294Z,9.10
2023-01-22T12:16:21.532Z,9.50
2023-01-22T12:19:07.787Z,7.70
2023-01-22T12:21:42.476Z,5.20
2023-01-22T12:24:20.395Z,8.40
2023-01-22T12:26:59.495Z,13.90
2023-01-22T12:29:43.085Z,12.20
2023-01-22T12:32:15.586Z,14.30
2023-01-22T12:34:59.167Z,13.30
2023-01-22T12:37:40.957Z,11.50
2023-01-22T12:40:24.206Z,8.90
2023-01-22T12:43:06.627Z,6.90
2023-01-22T12:45:44.915Z,6.40
2023-01-22T12:48:32.905Z,8.20
2023-01-22T12:51:01.491Z,9.50
2023-01-22T12:53:34.874Z,7.70
2023-01-22T12:56:07.915Z,8.60
2023-01-22T12:58:39.133Z,5.80
2023-01-22T13:01:10.241Z,8.40
2023-01-22T13:03:40.949Z,6.30
2023-01-22T13:08:59.505Z,11.30
2023-01-22T13:11:38.849Z,7.50
2023-01-22T13:14:31.429Z,6.30
2023-01-22T13:17:17.976Z,6.70
2023-01-22T13:19:50.329Z,16.00
2023-01-22T13:22:28.288Z,10.40
2023-01-22T13:24:59.725Z,8.60
2023-01-22T13:30:14.313Z,10.20
2023-01-22T13:32:43.107Z,8.80
2023-01-22T13:35:18.337Z,17.00
2023-01-22T13:37:54.111Z,19.10
2023-01-22T13:40:37.017Z,7.80
2023-01-22T13:43:19.341Z,8.60
2023-01-22T13:45:49.312Z,9.00
2023-01-22T13:48:20.099Z,8.80
2023-01-22T13:51:00.327Z,11.60
2023-01-22T13:53:40.966Z,9.30
2023-01-22T13:56:23.934Z,11.20
2023-01-22T13:58:53.043Z,9.00
2023-01-22T14:01:33.730Z,12.20
2023-01-22T14:04:08.147Z,11.90
2023-01-22T14:06:49.893Z,14.20
2023-01-22T14:09:32.519Z,14.40
2023-01-22T14:12:13.119Z,12.90
2023-01-22T14:17:20.720Z,11.50
2023-01-22T14:19:48.642Z,13.30
2023-01-22T14:22:17.576Z,12.00
2023-01-22T14:24:45.775Z,11.60
2023-01-22T14:27:16.541Z,14.10
2023-01-22T14:29:45.864Z,16.60
2023-01-22T14:32:14.167Z,14.30
2023-01-22T14:34:42.917Z,15.50
2023-01-22T14:37:17.944Z,16.30
2023-01-22T14:39:46.709Z,15.20
2023-01-22T14:42:16.341Z,17.50
2023-01-22T14:44:44.401Z,20.20
2023-01-22T14:47:12.889Z,20.50
2023-01-22T14:49:40.869Z,22.50
2023-01-22T14:52:09.490Z,18.50
2023-01-22T14:54:37.502Z,28.10
2023-01-22T14:57:06.122Z,25.20
2023-01-22T14:59:34.721Z,20.00
2023-01-22T15:02:02.827Z,18.70
2023-01-22T15:04:31.489Z,22.60
2023-01-22T15:06:59.759Z,20.00
2023-01-22T15:09:28.177Z,21.10
2023-01-22T15:11:56.368Z,18.50
2023-01-22T15:14:24.783Z,23.60
2023-01-22T15:16:53.384Z,19.20
2023-01-22T15:19:21.633Z,20.70
2023-01-22T15:21:49.574Z,20.00
2023-01-22T15:24:18.007Z,21.90
2023-01-22T15:26:46.470Z,23.50
2023-01-22T15:29:14.824Z,25.40
2023-01-22T15:31:43.665Z,23.30
2023-01-22T15:34:12.180Z,22.30
2023-01-22T15:36:40.650Z,26.30
2023-01-22T15:39:11.773Z,22.70
2023-01-22T15:41:40.383Z,20.50
2023-01-22T15:44:12.785Z,19.70
2023-01-22T15:46:42.585Z,17.60
2023-01-22T15:49:12.550Z,14.20
2023-01-22T15:51:42.493Z,16.20
2023-01-22T15:54:14.613Z,16.70
2023-01-22T15:56:43.528Z,14.90
2023-01-22T15:59:12.241Z,20.70
2023-01-22T16:01:40.997Z,17.40
2023-01-22T16:04:10.055Z,17.20
2023-01-22T16:06:38.040Z,18.00
2023-01-22T16:09:07.855Z,17.90
2023-01-22T16:11:36.935Z,18.50
2023-01-22T16:14:04.962Z,17.80
2023-01-22T16:16:37.941Z,20.40
2023-01-22T16:19:08.569Z,19.10
2023-01-22T16:21:36.640Z,17.50
2023-01-22T16:24:05.393Z,18.50
2023-01-22T16:26:35.194Z,17.80
2023-01-22T16:29:05.529Z,16.90
2023-01-22T16:31:35.570Z,20.60
2023-01-22T16:34:22.144Z,18.10
2023-01-22T16:36:50.531Z,16.70
2023-01-22T16:39:20.747Z,16.10
2023-01-22T16:41:51.404Z,19.40
2023-01-22T16:46:52.491Z,18.80
2023-01-22T16:49:26.765Z,21.70
2023-01-22T16:51:58.376Z,18.30
2023-01-22T16:54:31.983Z,21.60
2023-01-22T16:57:05.363Z,20.00
2023-01-22T16:59:35.392Z,18.10
2023-01-22T17:02:05.971Z,17.80
2023-01-22T17:04:34.585Z,25.70
2023-01-22T17:07:05.182Z,18.20
2023-01-22T17:09:36.231Z,19.30
2023-01-22T17:12:06.076Z,21.80
2023-01-22T17:14:36.831Z,18.30
2023-01-22T17:19:36.099Z,26.50
2023-01-22T17:22:04.996Z,17.10
2023-01-22T17:24:33.461Z,18.00
2023-01-22T17:27:04.568Z,20.20
2023-01-22T17:29:35.056Z,17.20
2023-01-22T17:32:04.435Z,18.50
2023-01-22T17:34:32.789Z,18.70
2023-01-22T17:37:00.827Z,18.30
2023-01-22T17:39:29.192Z,18.70
2023-01-22T17:41:57.717Z,21.60
2023-01-22T17:44:26.840Z,22.40
2023-01-22T17:46:59.431Z,25.40
2023-01-22T17:49:27.584Z,25.90
2023-01-22T17:51:56.750Z,25.40
2023-01-22T17:54:25.064Z,23.40
2023-01-22T17:56:53.535Z,25.90
2023-01-22T17:59:22.953Z,23.60
2023-01-22T18:01:52.161Z,20.80
2023-01-22T18:04:20.549Z,20.20
2023-01-22T18:06:50.308Z,18.90
2023-01-22T18:09:21.247Z,20.10
2023-01-22T18:11:49.436Z,18.50
2023-01-22T18:14:22.922Z,20.40
2023-01-22T18:19:19.689Z,18.20
2023-01-22T18:21:47.727Z,22.30
2023-01-22T18:24:17.193Z,18.80
2023-01-22T18:26:45.504Z,17.10
2023-01-22T18:29:14.274Z,21.50
2023-01-22T18:31:42.774Z,23.80
2023-01-22T18:34:14.678Z,19.00
2023-01-22T18:36:44.440Z,20.70
2023-01-22T18:39:16.094Z,25.70
2023-01-22T18:41:45.717Z,21.80
2023-01-22T18:44:16.289Z,23.20
2023-01-22T18:46:48.164Z,26.00
2023-01-22T18:49:19.071Z,23.60
2023-01-22T18:51:48.201Z,25.30
2023-01-22T18:54:17.284Z,24.90
2023-01-22T18:56:47.454Z,24.60
2023-01-22T18:59:15.925Z,19.70
2023-01-22T19:01:50.571Z,18.70
2023-01-22T19:04:22.235Z,18.10
2023-01-22T19:06:53.415Z,17.00
2023-01-22T19:09:21.665Z,18.30
2023-01-22T19:11:52.494Z,18.70
2023-01-22T19:14:22.371Z,17.60
2023-01-22T19:16:53.675Z,20.40
2023-01-22T19:19:22.969Z,16.50
2023-01-22T19:21:55.565Z,12.80
2023-01-22T19:24:28.562Z,18.00
2023-01-22T19:27:00.201Z,18.90
2023-01-22T19:29:28.913Z,16.70
2023-01-22T19:31:57.603Z,15.90
2023-01-22T19:34:28.990Z,17.40
2023-01-22T19:37:02.621Z,18.20
2023-01-22T19:39:31.806Z,16.30
2023-01-22T19:42:02.522Z,17.10
2023-01-22T19:44:32.964Z,17.60
2023-01-22T19:47:01.918Z,16.90
2023-01-22T19:49:30.278Z,16.20
2023-01-22T19:51:58.592Z,18.80
2023-01-22T19:54:29.856Z,15.30
2023-01-22T19:56:58.147Z,17.30
2023-01-22T19:59:29.507Z,20.50
2023-01-22T20:01:58.084Z,18.30
2023-01-22T20:04:34.268Z,19.00
2023-01-22T20:07:08.051Z,20.50
2023-01-22T20:09:37.473Z,19.00
2023-01-22T20:12:06.289Z,16.40
2023-01-22T20:14:41.690Z,16.50
2023-01-22T20:17:11.087Z,18.70
2023-01-22T20:19:40.068Z,19.10
2023-01-22T20:22:11.192Z,18.20
2023-01-22T20:24:43.694Z,16.00
2023-01-22T20:27:12.032Z,15.70
2023-01-22T20:29:40.978Z,14.70
2023-01-22T20:32:09.344Z,14.80
2023-01-22T20:34:37.787Z,16.30
2023-01-22T20:37:06.194Z,17.90
2023-01-22T20:39:34.609Z,15.30
2023-01-22T20:42:02.902Z,16.20
2023-01-22T20:44:32.499Z,15.20
2023-01-22T20:47:01.715Z,17.30
2023-01-22T20:49:30.441Z,18.30
2023-01-22T20:52:01.622Z,17.30
2023-01-22T20:54:30.860Z,11.70
2023-01-22T20:56:59.519Z,13.30
2023-01-22T20:59:28.756Z,13.60
2023-01-22T21:01:59.256Z,17.80
2023-01-22T21:04:27.329Z,18.50
2023-01-22T21:06:56.904Z,13.60
2023-01-22T21:09:26.383Z,16.80
2023-01-22T21:11:55.257Z,19.60
2023-01-22T21:14:26.107Z,15.60
2023-01-22T21:16:57.756Z,17.50
2023-01-22T21:19:29.687Z,16.50
2023-01-22T21:22:00.828Z,17.70
2023-01-22T21:24:29.135Z,17.10
2023-01-22T21:26:57.869Z,14.90
2023-01-22T21:29:27.575Z,15.60
2023-01-22T21:31:56.321Z,15.10
2023-01-22T21:34:26.441Z,15.50
2023-01-22T21:36:55.345Z,16.20
2023-01-22T21:39:26.295Z,16.70
2023-01-22T21:45:04.739Z,20.40
2023-01-22T21:47:33.100Z,15.20
2023-01-22T21:50:01.330Z,15.20
2023-01-22T21:52:29.596Z,24.40
2023-01-22T21:54:59.142Z,43.90
2023-01-22T21:57:28.043Z,25.30
2023-01-22T21:59:56.567Z,26.60
2023-01-22T22:02:25.456Z,63.30
2023-01-22T22:04:53.655Z,51.60
2023-01-22T22:07:21.812Z,23.20
2023-01-22T22:09:49.767Z,20.30
2023-01-22T22:12:17.993Z,15.60
2023-01-22T22:14:46.331Z,15.50
2023-01-22T22:17:14.601Z,15.90
2023-01-22T22:19:42.986Z,14.80
2023-01-22T22:22:11.272Z,13.80
2023-01-22T22:24:39.323Z,14.70
2023-01-22T22:27:07.586Z,13.40
2023-01-22T22:29:36.021Z,13.80
2023-01-22T22:32:04.643Z,14.20
2023-01-22T22:34:32.971Z,16.30
2023-01-22T22:37:01.343Z,15.60
2023-01-22T22:39:29.317Z,19.40
2023-01-22T22:41:57.967Z,15.40
2023-01-22T22:44:25.919Z,14.20
2023-01-22T22:46:54.316Z,15.90
2023-01-22T22:49:22.712Z,13.10
2023-01-22T22:51:51.376Z,15.00
2023-01-22T22:54:19.830Z,12.10
2023-01-22T22:56:49.676Z,13.70
2023-01-22T22:59:20.062Z,13.10
2023-01-22T23:01:51.194Z,11.90
2023-01-22T23:04:19.591Z,13.30
2023-01-22T23:06:48.651Z,12.50
2023-01-22T23:09:20.018Z,14.20
2023-01-22T23:11:51.964Z,11.90
2023-01-22T23:14:20.535Z,18.90
2023-01-22T23:16:49.347Z,18.30
2023-01-22T23:19:24.757Z,15.40
2023-01-22T23:21:58.293Z,15.80
2023-01-22T23:24:27.947Z,18.40
2023-01-22T23:26:57.307Z,21.50
2023-01-22T23:29:27.002Z,20.60
2023-01-22T23:31:56.824Z,17.30
2023-01-22T23:34:25.544Z,15.20
2023-01-22T23:36:53.681Z,16.70
2023-01-22T23:39:22.125Z,15.70
2023-01-22T23:41:50.629Z,17.90
2023-01-22T23:44:18.939Z,23.40
2023-01-22T23:46:47.705Z,25.50
2023-01-22T23:49:15.683Z,25.90
2023-01-22T23:51:45.124Z,30.40
2023-01-22T23:54:13.517Z,29.80
2023-01-22T23:56:41.804Z,23.80
2023-01-22T23:59:11.689Z,26.30
